sensor_id;sensor_type;location;lat;lon;timestamp;temperature;humidity
39751;DHT22;37579;51.074;17.004;2022-08-01T00:00:14;25.60;49.80
39751;DHT22;37579;51.074;17.004;2022-08-01T00:02:40;25.60;49.90
39751;DHT22;37579;51.074;17.004;2022-08-01T00:05:07;25.60;49.80
39751;DHT22;37579;51.074;17.004;2022-08-01T00:07:34;25.60;49.90
39751;DHT22;37579;51.074;17.004;2022-08-01T00:09:59;25.60;49.80
39751;DHT22;37579;51.074;17.004;2022-08-01T00:12:25;25.60;49.80
39751;DHT22;37579;51.074;17.004;2022-08-01T00:14:51;25.60;49.80
39751;DHT22;37579;51.074;17.004;2022-08-01T00:17:17;25.60;49.90
39751;DHT22;37579;51.074;17.004;2022-08-01T00:19:42;25.60;49.90
39751;DHT22;37579;51.074;17.004;2022-08-01T00:22:08;25.60;49.90
39751;DHT22;37579;51.074;17.004;2022-08-01T00:24:34;25.50;50.50
39751;DHT22;37579;51.074;17.004;2022-08-01T00:27:00;25.50;49.90
39751;DHT22;37579;51.074;17.004;2022-08-01T00:29:25;25.50;49.90
39751;DHT22;37579;51.074;17.004;2022-08-01T00:31:51;25.50;50.00
39751;DHT22;37579;51.074;17.004;2022-08-01T00:34:17;25.50;49.80
39751;DHT22;37579;51.074;17.004;2022-08-01T00:36:43;25.50;49.90
39751;DHT22;37579;51.074;17.004;2022-08-01T00:39:09;25.50;50.00
39751;DHT22;37579;51.074;17.004;2022-08-01T00:41:34;25.60;50.00
39751;DHT22;37579;51.074;17.004;2022-08-01T00:44:04;25.60;50.00
39751;DHT22;37579;51.074;17.004;2022-08-01T00:46:32;25.50;50.00
39751;DHT22;37579;51.074;17.004;2022-08-01T00:48:58;25.50;49.90
39751;DHT22;37579;51.074;17.004;2022-08-01T00:51:25;25.50;50.00
39751;DHT22;37579;51.074;17.004;2022-08-01T00:53:52;25.50;50.00
39751;DHT22;37579;51.074;17.004;2022-08-01T00:56:23;25.50;50.00
39751;DHT22;37579;51.074;17.004;2022-08-01T00:58:49;25.50;50.00
39751;DHT22;37579;51.074;17.004;2022-08-01T01:01:15;25.50;50.00
39751;DHT22;37579;51.074;17.004;2022-08-01T01:03:41;25.50;50.00
39751;DHT22;37579;51.074;17.004;2022-08-01T01:06:38;25.50;50.00
39751;DHT22;37579;51.074;17.004;2022-08-01T01:12:12;25.50;50.10
39751;DHT22;37579;51.074;17.004;2022-08-01T01:14:44;25.50;50.00
39751;DHT22;37579;51.074;17.004;2022-08-01T01:17:17;25.50;50.00
39751;DHT22;37579;51.074;17.004;2022-08-01T01:19:47;25.50;50.10
39751;DHT22;37579;51.074;17.004;2022-08-01T01:28:06;25.50;50.00
39751;DHT22;37579;51.074;17.004;2022-08-01T01:30:34;25.50;50.10
39751;DHT22;37579;51.074;17.004;2022-08-01T01:33:03;25.50;50.00
39751;DHT22;37579;51.074;17.004;2022-08-01T01:35:32;25.50;50.00
39751;DHT22;37579;51.074;17.004;2022-08-01T01:38:10;25.50;50.20
39751;DHT22;37579;51.074;17.004;2022-08-01T01:40:38;25.50;50.00
39751;DHT22;37579;51.074;17.004;2022-08-01T01:43:08;25.50;50.10
39751;DHT22;37579;51.074;17.004;2022-08-01T01:45:35;25.50;50.10
39751;DHT22;37579;51.074;17.004;2022-08-01T01:48:02;25.50;50.10
39751;DHT22;37579;51.074;17.004;2022-08-01T01:50:29;25.50;50.30
39751;DHT22;37579;51.074;17.004;2022-08-01T01:52:56;25.50;50.30
39751;DHT22;37579;51.074;17.004;2022-08-01T01:55:24;25.50;50.10
39751;DHT22;37579;51.074;17.004;2022-08-01T01:57:51;25.50;50.40
39751;DHT22;37579;51.074;17.004;2022-08-01T02:00:18;25.50;50.20
39751;DHT22;37579;51.074;17.004;2022-08-01T02:02:44;25.50;50.10
39751;DHT22;37579;51.074;17.004;2022-08-01T02:05:12;25.50;50.30
39751;DHT22;37579;51.074;17.004;2022-08-01T02:07:39;25.50;50.10
39751;DHT22;37579;51.074;17.004;2022-08-01T02:10:07;25.50;50.30
39751;DHT22;37579;51.074;17.004;2022-08-01T02:12:37;25.50;50.20
39751;DHT22;37579;51.074;17.004;2022-08-01T02:15:04;25.50;50.20
39751;DHT22;37579;51.074;17.004;2022-08-01T02:17:30;25.50;50.20
39751;DHT22;37579;51.074;17.004;2022-08-01T02:19:57;25.50;50.20
39751;DHT22;37579;51.074;17.004;2022-08-01T02:22:30;25.50;50.10
39751;DHT22;37579;51.074;17.004;2022-08-01T02:25:11;25.50;50.20
39751;DHT22;37579;51.074;17.004;2022-08-01T02:27:46;25.50;50.20
39751;DHT22;37579;51.074;17.004;2022-08-01T02:30:16;25.50;50.20
39751;DHT22;37579;51.074;17.004;2022-08-01T02:32:57;25.50;50.30
39751;DHT22;37579;51.074;17.004;2022-08-01T02:35:32;25.50;50.20
39751;DHT22;37579;51.074;17.004;2022-08-01T02:38:00;25.50;50.20
39751;DHT22;37579;51.074;17.004;2022-08-01T02:40:32;25.40;50.30
39751;DHT22;37579;51.074;17.004;2022-08-01T02:43:00;25.50;50.40
39751;DHT22;37579;51.074;17.004;2022-08-01T02:45:27;25.50;50.30
39751;DHT22;37579;51.074;17.004;2022-08-01T02:47:59;25.50;50.30
39751;DHT22;37579;51.074;17.004;2022-08-01T02:50:27;25.50;50.30
39751;DHT22;37579;51.074;17.004;2022-08-01T02:52:54;25.50;50.40
39751;DHT22;37579;51.074;17.004;2022-08-01T02:55:20;25.50;50.20
39751;DHT22;37579;51.074;17.004;2022-08-01T02:57:49;25.50;50.20
39751;DHT22;37579;51.074;17.004;2022-08-01T03:00:17;25.50;50.40
39751;DHT22;37579;51.074;17.004;2022-08-01T03:02:43;25.50;50.20
39751;DHT22;37579;51.074;17.004;2022-08-01T03:05:12;25.50;50.30
39751;DHT22;37579;51.074;17.004;2022-08-01T03:07:39;25.50;50.20
39751;DHT22;37579;51.074;17.004;2022-08-01T03:10:05;25.50;50.30
39751;DHT22;37579;51.074;17.004;2022-08-01T03:12:33;25.50;50.30
39751;DHT22;37579;51.074;17.004;2022-08-01T03:15:00;25.40;50.20
39751;DHT22;37579;51.074;17.004;2022-08-01T03:17:29;25.50;50.30
39751;DHT22;37579;51.074;17.004;2022-08-01T03:19:57;25.50;50.40
39751;DHT22;37579;51.074;17.004;2022-08-01T03:22:25;25.50;50.30
39751;DHT22;37579;51.074;17.004;2022-08-01T03:24:52;25.50;50.30
39751;DHT22;37579;51.074;17.004;2022-08-01T03:27:21;25.50;50.30
39751;DHT22;37579;51.074;17.004;2022-08-01T03:29:48;25.50;50.40
39751;DHT22;37579;51.074;17.004;2022-08-01T03:32:17;25.50;50.40
39751;DHT22;37579;51.074;17.004;2022-08-01T03:34:43;25.40;50.40
39751;DHT22;37579;51.074;17.004;2022-08-01T03:39:44;25.50;50.40
39751;DHT22;37579;51.074;17.004;2022-08-01T03:42:16;25.50;50.50
39751;DHT22;37579;51.074;17.004;2022-08-01T03:44:48;25.50;50.30
39751;DHT22;37579;51.074;17.004;2022-08-01T03:47:18;25.50;50.40
39751;DHT22;37579;51.074;17.004;2022-08-01T03:49:48;25.50;50.40
39751;DHT22;37579;51.074;17.004;2022-08-01T03:52:15;25.50;50.40
39751;DHT22;37579;51.074;17.004;2022-08-01T03:54:46;25.50;50.40
39751;DHT22;37579;51.074;17.004;2022-08-01T03:57:13;25.50;50.50
39751;DHT22;37579;51.074;17.004;2022-08-01T03:59:40;25.50;50.50
39751;DHT22;37579;51.074;17.004;2022-08-01T04:02:07;25.50;50.40
39751;DHT22;37579;51.074;17.004;2022-08-01T04:04:33;25.50;50.40
39751;DHT22;37579;51.074;17.004;2022-08-01T04:07:00;25.40;50.40
39751;DHT22;37579;51.074;17.004;2022-08-01T04:09:32;25.50;50.50
39751;DHT22;37579;51.074;17.004;2022-08-01T04:12:01;25.50;50.40
39751;DHT22;37579;51.074;17.004;2022-08-01T04:14:28;25.50;50.60
39751;DHT22;37579;51.074;17.004;2022-08-01T04:16:54;25.40;50.40
39751;DHT22;37579;51.074;17.004;2022-08-01T04:19:20;25.50;50.60
39751;DHT22;37579;51.074;17.004;2022-08-01T04:21:46;25.50;50.50
39751;DHT22;37579;51.074;17.004;2022-08-01T04:24:15;25.50;50.50
39751;DHT22;37579;51.074;17.004;2022-08-01T04:26:44;25.50;50.50
39751;DHT22;37579;51.074;17.004;2022-08-01T04:29:10;25.50;50.50
39751;DHT22;37579;51.074;17.004;2022-08-01T04:31:39;25.50;50.50
39751;DHT22;37579;51.074;17.004;2022-08-01T04:34:07;25.50;50.50
39751;DHT22;37579;51.074;17.004;2022-08-01T04:36:35;25.40;50.40
39751;DHT22;37579;51.074;17.004;2022-08-01T04:39:03;25.50;50.60
39751;DHT22;37579;51.074;17.004;2022-08-01T04:41:30;25.50;50.60
39751;DHT22;37579;51.074;17.004;2022-08-01T04:43:57;25.50;50.60
39751;DHT22;37579;51.074;17.004;2022-08-01T04:46:25;25.50;50.50
39751;DHT22;37579;51.074;17.004;2022-08-01T04:48:51;25.40;50.40
39751;DHT22;37579;51.074;17.004;2022-08-01T04:51:20;25.50;50.50
39751;DHT22;37579;51.074;17.004;2022-08-01T04:53:48;25.50;50.50
39751;DHT22;37579;51.074;17.004;2022-08-01T04:56:16;25.50;50.50
39751;DHT22;37579;51.074;17.004;2022-08-01T04:58:42;25.40;50.50
39751;DHT22;37579;51.074;17.004;2022-08-01T05:01:09;25.50;50.60
39751;DHT22;37579;51.074;17.004;2022-08-01T05:03:36;25.50;50.60
39751;DHT22;37579;51.074;17.004;2022-08-01T05:06:02;25.50;50.60
39751;DHT22;37579;51.074;17.004;2022-08-01T05:08:28;25.50;50.50
39751;DHT22;37579;51.074;17.004;2022-08-01T05:10:54;25.40;50.50
39751;DHT22;37579;51.074;17.004;2022-08-01T05:13:20;25.40;50.40
39751;DHT22;37579;51.074;17.004;2022-08-01T05:15:45;25.40;50.60
39751;DHT22;37579;51.074;17.004;2022-08-01T05:18:11;25.50;50.60
39751;DHT22;37579;51.074;17.004;2022-08-01T05:20:37;25.50;50.70
39751;DHT22;37579;51.074;17.004;2022-08-01T05:23:06;25.50;50.70
39751;DHT22;37579;51.074;17.004;2022-08-01T05:25:32;25.50;50.60
39751;DHT22;37579;51.074;17.004;2022-08-01T05:27:58;25.50;50.50
39751;DHT22;37579;51.074;17.004;2022-08-01T05:30:24;25.50;50.50
39751;DHT22;37579;51.074;17.004;2022-08-01T05:32:50;25.50;50.50
39751;DHT22;37579;51.074;17.004;2022-08-01T05:35:16;25.50;50.50
39751;DHT22;37579;51.074;17.004;2022-08-01T05:37:41;25.50;50.60
39751;DHT22;37579;51.074;17.004;2022-08-01T05:40:08;25.40;50.60
39751;DHT22;37579;51.074;17.004;2022-08-01T05:42:33;25.40;50.70
39751;DHT22;37579;51.074;17.004;2022-08-01T05:44:59;25.40;50.60
39751;DHT22;37579;51.074;17.004;2022-08-01T05:47:25;25.40;50.70
39751;DHT22;37579;51.074;17.004;2022-08-01T05:49:51;25.40;50.70
39751;DHT22;37579;51.074;17.004;2022-08-01T05:52:16;25.50;50.90
39751;DHT22;37579;51.074;17.004;2022-08-01T05:54:43;25.40;50.70
39751;DHT22;37579;51.074;17.004;2022-08-01T05:57:08;25.40;50.70
39751;DHT22;37579;51.074;17.004;2022-08-01T05:59:34;25.40;50.60
39751;DHT22;37579;51.074;17.004;2022-08-01T06:02:00;25.50;50.70
39751;DHT22;37579;51.074;17.004;2022-08-01T06:04:26;25.50;50.80
39751;DHT22;37579;51.074;17.004;2022-08-01T06:06:51;25.50;50.50
39751;DHT22;37579;51.074;17.004;2022-08-01T06:09:17;25.60;50.40
39751;DHT22;37579;51.074;17.004;2022-08-01T06:11:43;25.70;50.50
39751;DHT22;37579;51.074;17.004;2022-08-01T06:14:08;25.70;50.50
39751;DHT22;37579;51.074;17.004;2022-08-01T06:16:34;25.80;50.30
39751;DHT22;37579;51.074;17.004;2022-08-01T06:19:00;25.80;50.40
39751;DHT22;37579;51.074;17.004;2022-08-01T06:21:26;25.80;50.60
39751;DHT22;37579;51.074;17.004;2022-08-01T06:23:51;25.80;50.70
39751;DHT22;37579;51.074;17.004;2022-08-01T06:26:18;25.80;50.60
39751;DHT22;37579;51.074;17.004;2022-08-01T06:28:44;25.80;50.50
39751;DHT22;37579;51.074;17.004;2022-08-01T06:31:09;25.80;50.50
39751;DHT22;37579;51.074;17.004;2022-08-01T06:33:37;25.80;50.80
39751;DHT22;37579;51.074;17.004;2022-08-01T06:36:03;25.80;50.70
39751;DHT22;37579;51.074;17.004;2022-08-01T06:38:29;25.80;50.90
39751;DHT22;37579;51.074;17.004;2022-08-01T06:40:55;25.80;50.90
39751;DHT22;37579;51.074;17.004;2022-08-01T06:43:21;25.80;51.80
39751;DHT22;37579;51.074;17.004;2022-08-01T06:45:47;25.80;52.30
39751;DHT22;37579;51.074;17.004;2022-08-01T06:48:13;25.80;51.80
39751;DHT22;37579;51.074;17.004;2022-08-01T06:50:38;25.80;51.70
39751;DHT22;37579;51.074;17.004;2022-08-01T06:53:04;25.80;51.80
39751;DHT22;37579;51.074;17.004;2022-08-01T06:55:30;25.80;52.00
39751;DHT22;37579;51.074;17.004;2022-08-01T06:57:56;25.80;51.90
39751;DHT22;37579;51.074;17.004;2022-08-01T07:00:24;25.80;52.30
39751;DHT22;37579;51.074;17.004;2022-08-01T07:02:55;25.80;52.30
39751;DHT22;37579;51.074;17.004;2022-08-01T07:05:21;25.80;52.20
39751;DHT22;37579;51.074;17.004;2022-08-01T07:07:47;25.80;52.40
39751;DHT22;37579;51.074;17.004;2022-08-01T07:10:13;25.80;52.80
39751;DHT22;37579;51.074;17.004;2022-08-01T07:12:39;25.80;53.10
39751;DHT22;37579;51.074;17.004;2022-08-01T07:15:08;25.80;53.10
39751;DHT22;37579;51.074;17.004;2022-08-01T07:17:42;25.80;53.40
39751;DHT22;37579;51.074;17.004;2022-08-01T07:20:09;25.80;53.10
39751;DHT22;37579;51.074;17.004;2022-08-01T07:22:36;25.80;53.50
39751;DHT22;37579;51.074;17.004;2022-08-01T07:25:04;25.80;53.40
39751;DHT22;37579;51.074;17.004;2022-08-01T07:27:30;25.80;53.20
39751;DHT22;37579;51.074;17.004;2022-08-01T07:29:55;25.80;53.30
39751;DHT22;37579;51.074;17.004;2022-08-01T07:32:21;25.80;54.40
39751;DHT22;37579;51.074;17.004;2022-08-01T07:34:47;25.80;54.40
39751;DHT22;37579;51.074;17.004;2022-08-01T07:37:12;25.80;53.90
39751;DHT22;37579;51.074;17.004;2022-08-01T07:39:38;25.70;54.10
39751;DHT22;37579;51.074;17.004;2022-08-01T07:42:04;25.70;54.20
39751;DHT22;37579;51.074;17.004;2022-08-01T07:44:30;25.70;54.10
39751;DHT22;37579;51.074;17.004;2022-08-01T07:46:55;25.80;54.10
39751;DHT22;37579;51.074;17.004;2022-08-01T07:49:21;25.70;54.40
39751;DHT22;37579;51.074;17.004;2022-08-01T07:51:47;25.80;54.10
39751;DHT22;37579;51.074;17.004;2022-08-01T07:54:13;25.70;55.00
39751;DHT22;37579;51.074;17.004;2022-08-01T07:56:39;25.70;54.80
39751;DHT22;37579;51.074;17.004;2022-08-01T07:59:05;25.70;54.60
39751;DHT22;37579;51.074;17.004;2022-08-01T08:01:30;25.70;54.60
39751;DHT22;37579;51.074;17.004;2022-08-01T08:03:56;25.70;54.70
39751;DHT22;37579;51.074;17.004;2022-08-01T08:06:22;25.80;54.50
39751;DHT22;37579;51.074;17.004;2022-08-01T08:08:48;25.80;54.80
39751;DHT22;37579;51.074;17.004;2022-08-01T08:11:13;25.70;54.90
39751;DHT22;37579;51.074;17.004;2022-08-01T08:13:39;25.70;54.70
39751;DHT22;37579;51.074;17.004;2022-08-01T08:16:05;25.80;54.60
39751;DHT22;37579;51.074;17.004;2022-08-01T08:18:31;25.90;54.40
39751;DHT22;37579;51.074;17.004;2022-08-01T08:20:56;25.90;54.70
39751;DHT22;37579;51.074;17.004;2022-08-01T08:23:22;25.80;54.60
39751;DHT22;37579;51.074;17.004;2022-08-01T08:26:06;25.90;54.50
39751;DHT22;37579;51.074;17.004;2022-08-01T08:28:32;25.80;54.90
39751;DHT22;37579;51.074;17.004;2022-08-01T08:30:58;25.80;55.20
39751;DHT22;37579;51.074;17.004;2022-08-01T08:33:23;25.80;54.90
39751;DHT22;37579;51.074;17.004;2022-08-01T08:35:49;25.80;55.20
39751;DHT22;37579;51.074;17.004;2022-08-01T08:38:15;25.80;55.30
39751;DHT22;37579;51.074;17.004;2022-08-01T08:40:41;25.80;55.70
39751;DHT22;37579;51.074;17.004;2022-08-01T08:43:07;25.80;55.80
39751;DHT22;37579;51.074;17.004;2022-08-01T08:45:33;25.70;55.80
39751;DHT22;37579;51.074;17.004;2022-08-01T08:47:59;25.70;55.90
39751;DHT22;37579;51.074;17.004;2022-08-01T08:50:26;25.70;56.00
39751;DHT22;37579;51.074;17.004;2022-08-01T08:52:54;25.70;56.20
39751;DHT22;37579;51.074;17.004;2022-08-01T08:55:20;25.70;56.20
39751;DHT22;37579;51.074;17.004;2022-08-01T08:57:48;25.60;56.30
39751;DHT22;37579;51.074;17.004;2022-08-01T09:00:15;25.70;56.30
39751;DHT22;37579;51.074;17.004;2022-08-01T09:02:43;25.60;56.30
39751;DHT22;37579;51.074;17.004;2022-08-01T09:05:10;25.70;56.10
39751;DHT22;37579;51.074;17.004;2022-08-01T09:07:36;25.70;56.00
39751;DHT22;37579;51.074;17.004;2022-08-01T09:10:02;25.70;56.00
39751;DHT22;37579;51.074;17.004;2022-08-01T09:12:28;25.70;56.30
39751;DHT22;37579;51.074;17.004;2022-08-01T09:14:54;25.70;55.70
39751;DHT22;37579;51.074;17.004;2022-08-01T09:17:20;25.80;55.90
39751;DHT22;37579;51.074;17.004;2022-08-01T09:19:53;25.70;56.00
39751;DHT22;37579;51.074;17.004;2022-08-01T09:22:21;25.70;56.10
39751;DHT22;37579;51.074;17.004;2022-08-01T09:27:24;25.70;56.00
39751;DHT22;37579;51.074;17.004;2022-08-01T09:29:54;25.70;56.10
39751;DHT22;37579;51.074;17.004;2022-08-01T09:32:20;25.70;55.90
39751;DHT22;37579;51.074;17.004;2022-08-01T09:34:46;25.70;56.10
39751;DHT22;37579;51.074;17.004;2022-08-01T09:37:12;25.70;56.00
39751;DHT22;37579;51.074;17.004;2022-08-01T09:39:42;25.80;56.00
39751;DHT22;37579;51.074;17.004;2022-08-01T09:42:25;25.80;55.80
39751;DHT22;37579;51.074;17.004;2022-08-01T09:44:51;25.90;55.90
39751;DHT22;37579;51.074;17.004;2022-08-01T09:47:19;25.90;55.90
39751;DHT22;37579;51.074;17.004;2022-08-01T09:49:53;26.10;55.50
39751;DHT22;37579;51.074;17.004;2022-08-01T09:52:23;26.10;55.50
39751;DHT22;37579;51.074;17.004;2022-08-01T09:57:25;26.20;55.10
39751;DHT22;37579;51.074;17.004;2022-08-01T09:59:53;26.30;55.10
39751;DHT22;37579;51.074;17.004;2022-08-01T10:04:54;26.30;55.00
39751;DHT22;37579;51.074;17.004;2022-08-01T10:07:20;26.30;55.10
39751;DHT22;37579;51.074;17.004;2022-08-01T10:09:48;26.30;54.60
39751;DHT22;37579;51.074;17.004;2022-08-01T10:12:16;26.40;54.70
39751;DHT22;37579;51.074;17.004;2022-08-01T10:14:48;26.40;54.40
39751;DHT22;37579;51.074;17.004;2022-08-01T10:17:20;26.50;54.30
39751;DHT22;37579;51.074;17.004;2022-08-01T10:19:47;26.60;54.30
39751;DHT22;37579;51.074;17.004;2022-08-01T10:22:16;26.70;54.20
39751;DHT22;37579;51.074;17.004;2022-08-01T10:24:46;26.80;54.10
39751;DHT22;37579;51.074;17.004;2022-08-01T10:27:15;26.80;53.60
39751;DHT22;37579;51.074;17.004;2022-08-01T10:29:55;26.90;53.60
39751;DHT22;37579;51.074;17.004;2022-08-01T10:32:22;26.90;53.60
39751;DHT22;37579;51.074;17.004;2022-08-01T10:34:49;26.90;53.60
39751;DHT22;37579;51.074;17.004;2022-08-01T10:37:15;26.90;53.40
39751;DHT22;37579;51.074;17.004;2022-08-01T10:39:42;27.00;53.30
39751;DHT22;37579;51.074;17.004;2022-08-01T10:42:10;27.00;53.30
39751;DHT22;37579;51.074;17.004;2022-08-01T10:44:37;27.00;53.40
39751;DHT22;37579;51.074;17.004;2022-08-01T10:47:10;27.00;53.10
39751;DHT22;37579;51.074;17.004;2022-08-01T10:49:43;27.00;53.20
39751;DHT22;37579;51.074;17.004;2022-08-01T10:52:19;27.00;53.40
39751;DHT22;37579;51.074;17.004;2022-08-01T10:54:45;27.00;53.30
39751;DHT22;37579;51.074;17.004;2022-08-01T10:57:12;27.00;53.10
39751;DHT22;37579;51.074;17.004;2022-08-01T10:59:49;27.20;53.10
39751;DHT22;37579;51.074;17.004;2022-08-01T11:02:29;27.20;53.10
39751;DHT22;37579;51.074;17.004;2022-08-01T11:05:01;27.30;53.00
39751;DHT22;37579;51.074;17.004;2022-08-01T11:07:43;27.30;52.90
39751;DHT22;37579;51.074;17.004;2022-08-01T11:12:59;27.30;53.00
39751;DHT22;37579;51.074;17.004;2022-08-01T11:15:27;27.20;53.00
39751;DHT22;37579;51.074;17.004;2022-08-01T11:17:54;27.30;52.90
39751;DHT22;37579;51.074;17.004;2022-08-01T11:20:31;27.30;52.90
39751;DHT22;37579;51.074;17.004;2022-08-01T11:30:47;27.50;52.60
39751;DHT22;37579;51.074;17.004;2022-08-01T11:33:15;27.60;52.80
39751;DHT22;37579;51.074;17.004;2022-08-01T11:39:10;27.50;53.00
39751;DHT22;37579;51.074;17.004;2022-08-01T11:41:36;27.50;52.80
39751;DHT22;37579;51.074;17.004;2022-08-01T11:44:06;27.50;52.70
39751;DHT22;37579;51.074;17.004;2022-08-01T11:49:43;27.60;52.60
39751;DHT22;37579;51.074;17.004;2022-08-01T11:52:15;27.50;52.60
39751;DHT22;37579;51.074;17.004;2022-08-01T11:54:44;27.50;52.60
39751;DHT22;37579;51.074;17.004;2022-08-01T11:57:12;27.50;52.80
39751;DHT22;37579;51.074;17.004;2022-08-01T11:59:43;27.40;53.00
39751;DHT22;37579;51.074;17.004;2022-08-01T12:02:18;27.50;53.30
39751;DHT22;37579;51.074;17.004;2022-08-01T12:07:17;27.30;53.60
39751;DHT22;37579;51.074;17.004;2022-08-01T12:09:43;27.30;53.90
39751;DHT22;37579;51.074;17.004;2022-08-01T12:12:10;27.20;53.50
39751;DHT22;37579;51.074;17.004;2022-08-01T12:14:36;27.20;53.70
39751;DHT22;37579;51.074;17.004;2022-08-01T12:17:01;27.20;53.60
39751;DHT22;37579;51.074;17.004;2022-08-01T12:19:27;27.20;53.60
39751;DHT22;37579;51.074;17.004;2022-08-01T12:22:13;27.20;53.60
39751;DHT22;37579;51.074;17.004;2022-08-01T12:24:42;27.20;53.70
39751;DHT22;37579;51.074;17.004;2022-08-01T12:27:10;27.00;54.40
39751;DHT22;37579;51.074;17.004;2022-08-01T12:29:40;26.90;54.80
39751;DHT22;37579;51.074;17.004;2022-08-01T12:32:24;26.80;54.90
39751;DHT22;37579;51.074;17.004;2022-08-01T12:34:52;26.80;54.90
39751;DHT22;37579;51.074;17.004;2022-08-01T12:37:18;26.70;55.10
39751;DHT22;37579;51.074;17.004;2022-08-01T12:39:45;26.70;55.10
39751;DHT22;37579;51.074;17.004;2022-08-01T12:42:12;26.60;55.30
39751;DHT22;37579;51.074;17.004;2022-08-01T12:44:39;26.60;55.20
39751;DHT22;37579;51.074;17.004;2022-08-01T12:47:06;26.70;54.80
39751;DHT22;37579;51.074;17.004;2022-08-01T12:49:33;26.70;54.30
39751;DHT22;37579;51.074;17.004;2022-08-01T12:52:00;26.70;54.20
39751;DHT22;37579;51.074;17.004;2022-08-01T12:54:27;26.70;54.50
39751;DHT22;37579;51.074;17.004;2022-08-01T12:56:53;26.70;54.60
39751;DHT22;37579;51.074;17.004;2022-08-01T12:59:23;26.60;54.80
39751;DHT22;37579;51.074;17.004;2022-08-01T13:01:52;26.60;55.20
39751;DHT22;37579;51.074;17.004;2022-08-01T13:04:18;26.40;55.60
39751;DHT22;37579;51.074;17.004;2022-08-01T13:06:45;26.40;55.90
39751;DHT22;37579;51.074;17.004;2022-08-01T13:09:11;26.40;55.90
39751;DHT22;37579;51.074;17.004;2022-08-01T13:11:41;26.40;55.90
39751;DHT22;37579;51.074;17.004;2022-08-01T13:14:09;26.50;55.90
39751;DHT22;37579;51.074;17.004;2022-08-01T13:16:46;26.50;55.80
39751;DHT22;37579;51.074;17.004;2022-08-01T13:19:12;26.50;55.90
39751;DHT22;37579;51.074;17.004;2022-08-01T13:21:38;26.40;56.00
39751;DHT22;37579;51.074;17.004;2022-08-01T13:24:06;26.40;56.00
39751;DHT22;37579;51.074;17.004;2022-08-01T13:29:09;26.60;56.10
39751;DHT22;37579;51.074;17.004;2022-08-01T13:31:37;26.60;55.80
39751;DHT22;37579;51.074;17.004;2022-08-01T13:34:03;26.60;55.80
39751;DHT22;37579;51.074;17.004;2022-08-01T13:36:29;26.70;56.00
39751;DHT22;37579;51.074;17.004;2022-08-01T13:39:00;26.70;55.90
39751;DHT22;37579;51.074;17.004;2022-08-01T13:41:45;26.60;55.50
39751;DHT22;37579;51.074;17.004;2022-08-01T13:44:12;26.60;55.70
39751;DHT22;37579;51.074;17.004;2022-08-01T13:46:38;26.70;55.60
39751;DHT22;37579;51.074;17.004;2022-08-01T13:49:06;26.60;55.50
39751;DHT22;37579;51.074;17.004;2022-08-01T13:51:32;26.60;55.60
39751;DHT22;37579;51.074;17.004;2022-08-01T13:53:59;26.60;55.60
39751;DHT22;37579;51.074;17.004;2022-08-01T13:56:25;26.60;55.60
39751;DHT22;37579;51.074;17.004;2022-08-01T13:58:53;26.60;55.30
39751;DHT22;37579;51.074;17.004;2022-08-01T14:01:19;26.60;55.10
39751;DHT22;37579;51.074;17.004;2022-08-01T14:03:45;26.60;55.30
39751;DHT22;37579;51.074;17.004;2022-08-01T14:06:12;26.60;55.30
39751;DHT22;37579;51.074;17.004;2022-08-01T14:08:39;26.60;55.30
39751;DHT22;37579;51.074;17.004;2022-08-01T14:11:05;26.60;55.30
39751;DHT22;37579;51.074;17.004;2022-08-01T14:13:31;26.60;55.10
39751;DHT22;37579;51.074;17.004;2022-08-01T14:15:58;26.60;54.90
39751;DHT22;37579;51.074;17.004;2022-08-01T14:18:25;26.60;54.80
39751;DHT22;37579;51.074;17.004;2022-08-01T14:20:51;26.60;54.90
39751;DHT22;37579;51.074;17.004;2022-08-01T14:23:17;26.50;54.90
39751;DHT22;37579;51.074;17.004;2022-08-01T14:25:43;26.50;55.00
39751;DHT22;37579;51.074;17.004;2022-08-01T14:28:09;26.50;55.20
39751;DHT22;37579;51.074;17.004;2022-08-01T14:30:36;26.50;55.20
39751;DHT22;37579;51.074;17.004;2022-08-01T14:33:01;26.50;55.80
39751;DHT22;37579;51.074;17.004;2022-08-01T14:35:27;26.50;55.10
39751;DHT22;37579;51.074;17.004;2022-08-01T14:37:53;26.50;55.30
39751;DHT22;37579;51.074;17.004;2022-08-01T14:40:19;26.50;55.30
39751;DHT22;37579;51.074;17.004;2022-08-01T14:42:44;26.50;55.30
39751;DHT22;37579;51.074;17.004;2022-08-01T14:45:12;26.50;55.30
39751;DHT22;37579;51.074;17.004;2022-08-01T14:47:39;26.60;56.00
39751;DHT22;37579;51.074;17.004;2022-08-01T14:50:06;26.50;55.60
39751;DHT22;37579;51.074;17.004;2022-08-01T14:52:36;26.60;55.60
39751;DHT22;37579;51.074;17.004;2022-08-01T14:55:03;26.50;55.60
39751;DHT22;37579;51.074;17.004;2022-08-01T14:57:30;26.50;55.70
39751;DHT22;37579;51.074;17.004;2022-08-01T14:59:55;26.40;56.00
39751;DHT22;37579;51.074;17.004;2022-08-01T15:02:22;26.50;55.80
39751;DHT22;37579;51.074;17.004;2022-08-01T15:04:48;26.50;55.70
39751;DHT22;37579;51.074;17.004;2022-08-01T15:07:15;26.50;55.50
39751;DHT22;37579;51.074;17.004;2022-08-01T15:09:41;26.60;55.50
39751;DHT22;37579;51.074;17.004;2022-08-01T15:12:07;26.70;55.30
39751;DHT22;37579;51.074;17.004;2022-08-01T15:14:33;26.80;55.20
39751;DHT22;37579;51.074;17.004;2022-08-01T15:17:28;26.80;55.10
39751;DHT22;37579;51.074;17.004;2022-08-01T15:19:56;26.90;54.80
39751;DHT22;37579;51.074;17.004;2022-08-01T15:22:24;27.00;54.70
39751;DHT22;37579;51.074;17.004;2022-08-01T15:24:52;27.10;54.40
39751;DHT22;37579;51.074;17.004;2022-08-01T15:27:18;27.20;54.60
39751;DHT22;37579;51.074;17.004;2022-08-01T15:29:44;27.20;54.00
39751;DHT22;37579;51.074;17.004;2022-08-01T15:32:11;27.30;54.00
39751;DHT22;37579;51.074;17.004;2022-08-01T15:34:37;27.30;53.80
39751;DHT22;37579;51.074;17.004;2022-08-01T15:37:04;27.30;53.80
39751;DHT22;37579;51.074;17.004;2022-08-01T15:39:31;27.30;53.60
39751;DHT22;37579;51.074;17.004;2022-08-01T15:41:59;27.30;53.50
39751;DHT22;37579;51.074;17.004;2022-08-01T15:44:25;27.30;53.60
39751;DHT22;37579;51.074;17.004;2022-08-01T15:46:51;27.30;53.60
39751;DHT22;37579;51.074;17.004;2022-08-01T15:49:17;27.30;53.70
39751;DHT22;37579;51.074;17.004;2022-08-01T15:51:43;27.30;53.80
39751;DHT22;37579;51.074;17.004;2022-08-01T15:54:09;27.30;54.10
39751;DHT22;37579;51.074;17.004;2022-08-01T15:56:36;27.20;54.20
39751;DHT22;37579;51.074;17.004;2022-08-01T15:59:02;27.20;54.30